sensor_id;sensor_type;location;lat;lon;timestamp;pressure;altitude;pressure_sealevel;temperature;humidity
76496;BME280;65329;52.544;4.662;2023-02-15T00:00:19;49170.88;;;-139.74;0.00
76496;BME280;65329;52.544;4.662;2023-02-15T00:02:46;49170.88;;;-139.74;0.00
76496;BME280;65329;52.544;4.662;2023-02-15T00:05:14;49166.72;;;-139.74;0.00
76496;BME280;65329;52.544;4.662;2023-02-15T00:07:41;49170.88;;;-139.74;0.00
76496;BME280;65329;52.544;4.662;2023-02-15T00:10:08;49168.78;;;-139.74;0.00
76496;BME280;65329;52.544;4.662;2023-02-15T00:12:35;49168.78;;;-139.74;0.00
76496;BME280;65329;52.544;4.662;2023-02-15T00:15:03;49170.88;;;-139.74;0.00
76496;BME280;65329;52.544;4.662;2023-02-15T00:17:31;49170.88;;;-139.74;0.00
76496;BME280;65329;52.544;4.662;2023-02-15T00:19:58;49166.72;;;-139.74;0.00
76496;BME280;65329;52.544;4.662;2023-02-15T00:22:25;49172.97;;;-139.74;0.00
76496;BME280;65329;52.544;4.662;2023-02-15T00:24:52;49168.78;;;-139.74;0.00
76496;BME280;65329;52.544;4.662;2023-02-15T00:27:20;49170.88;;;-139.74;0.00
76496;BME280;65329;52.544;4.662;2023-02-15T00:29:47;49166.72;;;-139.74;0.00
76496;BME280;65329;52.544;4.662;2023-02-15T00:32:15;49170.88;;;-139.74;0.00
76496;BME280;65329;52.544;4.662;2023-02-15T00:34:42;49166.72;;;-139.74;0.00
76496;BME280;65329;52.544;4.662;2023-02-15T00:37:10;49166.72;;;-139.74;0.00
76496;BME280;65329;52.544;4.662;2023-02-15T00:39:36;49166.72;;;-139.74;0.00
76496;BME280;65329;52.544;4.662;2023-02-15T00:42:04;49170.88;;;-139.74;0.00
76496;BME280;65329;52.544;4.662;2023-02-15T00:44:36;49170.88;;;-139.74;0.00
76496;BME280;65329;52.544;4.662;2023-02-15T00:47:03;49170.88;;;-139.74;0.00
76496;BME280;65329;52.544;4.662;2023-02-15T00:49:31;49172.97;;;-139.74;0.00
76496;BME280;65329;52.544;4.662;2023-02-15T00:51:57;49175.03;;;-139.74;0.00
76496;BME280;65329;52.544;4.662;2023-02-15T00:54:25;49170.88;;;-139.74;0.00
76496;BME280;65329;52.544;4.662;2023-02-15T00:56:53;49170.88;;;-139.74;0.00
76496;BME280;65329;52.544;4.662;2023-02-15T00:59:21;49170.88;;;-139.74;0.00
76496;BME280;65329;52.544;4.662;2023-02-15T01:01:49;49170.88;;;-139.74;0.00
76496;BME280;65329;52.544;4.662;2023-02-15T01:04:18;49170.88;;;-139.74;0.00
76496;BME280;65329;52.544;4.662;2023-02-15T01:06:45;49170.88;;;-139.74;0.00
76496;BME280;65329;52.544;4.662;2023-02-15T01:09:12;49170.88;;;-139.74;0.00
76496;BME280;65329;52.544;4.662;2023-02-15T01:11:40;49170.88;;;-139.74;0.00
76496;BME280;65329;52.544;4.662;2023-02-15T01:14:07;49170.88;;;-139.74;0.00
76496;BME280;65329;52.544;4.662;2023-02-15T01:16:37;49172.97;;;-139.74;0.00
76496;BME280;65329;52.544;4.662;2023-02-15T01:19:05;49170.88;;;-139.74;0.00
76496;BME280;65329;52.544;4.662;2023-02-15T01:21:32;49170.88;;;-139.74;0.00
76496;BME280;65329;52.544;4.662;2023-02-15T01:24:03;49170.88;;;-139.74;0.00
76496;BME280;65329;52.544;4.662;2023-02-15T01:26:30;49168.78;;;-139.74;0.00
76496;BME280;65329;52.544;4.662;2023-02-15T01:28:59;49170.88;;;-139.74;0.00
76496;BME280;65329;52.544;4.662;2023-02-15T01:31:25;49177.13;;;-139.74;0.00
76496;BME280;65329;52.544;4.662;2023-02-15T01:33:53;49175.03;;;-139.74;0.00
76496;BME280;65329;52.544;4.662;2023-02-15T01:36:22;49170.88;;;-139.74;0.00
76496;BME280;65329;52.544;4.662;2023-02-15T01:38:50;49170.88;;;-139.74;0.00
76496;BME280;65329;52.544;4.662;2023-02-15T01:41:17;49172.97;;;-139.74;0.00
76496;BME280;65329;52.544;4.662;2023-02-15T01:43:57;49168.78;;;-139.74;0.00
76496;BME280;65329;52.544;4.662;2023-02-15T01:46:40;49168.78;;;-139.74;0.00
76496;BME280;65329;52.544;4.662;2023-02-15T01:49:17;49172.97;;;-139.74;0.00
76496;BME280;65329;52.544;4.662;2023-02-15T01:51:47;49170.88;;;-139.74;0.00
76496;BME280;65329;52.544;4.662;2023-02-15T01:54:22;49172.97;;;-139.74;0.00
76496;BME280;65329;52.544;4.662;2023-02-15T01:57:01;49170.88;;;-139.74;0.00
76496;BME280;65329;52.544;4.662;2023-02-15T01:59:31;49170.88;;;-139.74;0.00
76496;BME280;65329;52.544;4.662;2023-02-15T02:02:00;49170.88;;;-139.74;0.00
76496;BME280;65329;52.544;4.662;2023-02-15T02:04:39;49170.88;;;-139.74;0.00
76496;BME280;65329;52.544;4.662;2023-02-15T02:07:08;49175.03;;;-139.74;0.00
76496;BME280;65329;52.544;4.662;2023-02-15T02:09:37;49172.97;;;-139.74;0.00
76496;BME280;65329;52.544;4.662;2023-02-15T02:12:04;49168.78;;;-139.74;0.00
76496;BME280;65329;52.544;4.662;2023-02-15T02:14:31;49172.97;;;-139.74;0.00
76496;BME280;65329;52.544;4.662;2023-02-15T02:23:23;49168.78;;;-139.74;0.00
76496;BME280;65329;52.544;4.662;2023-02-15T02:34:37;49175.03;;;-139.74;0.00
76496;BME280;65329;52.544;4.662;2023-02-15T02:39:51;49170.88;;;-139.74;0.00
76496;BME280;65329;52.544;4.662;2023-02-15T02:45:29;49170.88;;;-139.74;0.00
76496;BME280;65329;52.544;4.662;2023-02-15T02:47:59;49170.88;;;-139.74;0.00
76496;BME280;65329;52.544;4.662;2023-02-15T02:50:29;49166.72;;;-139.74;0.00
76496;BME280;65329;52.544;4.662;2023-02-15T02:52:58;49170.88;;;-139.74;0.00
76496;BME280;65329;52.544;4.662;2023-02-15T03:00:53;49170.88;;;-139.74;0.00
76496;BME280;65329;52.544;4.662;2023-02-15T03:03:37;49170.88;;;-139.74;0.00
76496;BME280;65329;52.544;4.662;2023-02-15T03:06:33;49168.78;;;-139.74;0.00
76496;BME280;65329;52.544;4.662;2023-02-15T03:09:10;49170.88;;;-139.74;0.00
76496;BME280;65329;52.544;4.662;2023-02-15T03:11:43;49170.88;;;-139.74;0.00
76496;BME280;65329;52.544;4.662;2023-02-15T03:14:12;49172.97;;;-139.74;0.00
76496;BME280;65329;52.544;4.662;2023-02-15T03:16:40;49170.88;;;-139.74;0.00
76496;BME280;65329;52.544;4.662;2023-02-15T03:19:17;49170.88;;;-139.74;0.00
76496;BME280;65329;52.544;4.662;2023-02-15T03:21:49;49166.72;;;-139.74;0.00
76496;BME280;65329;52.544;4.662;2023-02-15T03:26:56;49170.88;;;-139.74;0.00
76496;BME280;65329;52.544;4.662;2023-02-15T03:29:25;49170.88;;;-139.74;0.00
76496;BME280;65329;52.544;4.662;2023-02-15T03:31:58;49172.97;;;-139.74;0.00
76496;BME280;65329;52.544;4.662;2023-02-15T03:34:26;49172.97;;;-139.74;0.00
76496;BME280;65329;52.544;4.662;2023-02-15T03:42:10;49168.78;;;-139.74;0.00
76496;BME280;65329;52.544;4.662;2023-02-15T03:44:56;49172.97;;;-139.74;0.00
76496;BME280;65329;52.544;4.662;2023-02-15T03:47:33;49168.78;;;-139.74;0.00
76496;BME280;65329;52.544;4.662;2023-02-15T03:50:05;49168.78;;;-139.74;0.00
76496;BME280;65329;52.544;4.662;2023-02-15T03:52:57;49170.88;;;-139.74;0.00
76496;BME280;65329;52.544;4.662;2023-02-15T03:55:27;49172.97;;;-139.74;0.00
76496;BME280;65329;52.544;4.662;2023-02-15T03:57:56;49170.88;;;-139.74;0.00
76496;BME280;65329;52.544;4.662;2023-02-15T04:00:47;49175.03;;;-139.74;0.00
76496;BME280;65329;52.544;4.662;2023-02-15T04:03:39;49168.78;;;-139.74;0.00
76496;BME280;65329;52.544;4.662;2023-02-15T04:06:07;49168.78;;;-139.74;0.00
76496;BME280;65329;52.544;4.662;2023-02-15T04:08:35;49170.88;;;-139.74;0.00
76496;BME280;65329;52.544;4.662;2023-02-15T04:11:21;49170.88;;;-139.74;0.00
76496;BME280;65329;52.544;4.662;2023-02-15T04:13:48;49168.78;;;-139.74;0.00
76496;BME280;65329;52.544;4.662;2023-02-15T04:16:23;49170.88;;;-139.74;0.00
76496;BME280;65329;52.544;4.662;2023-02-15T04:18:50;49170.88;;;-139.74;0.00
76496;BME280;65329;52.544;4.662;2023-02-15T04:21:37;49170.88;;;-139.74;0.00
76496;BME280;65329;52.544;4.662;2023-02-15T04:24:22;49170.88;;;-139.74;0.00
76496;BME280;65329;52.544;4.662;2023-02-15T04:27:07;49172.97;;;-139.74;0.00
76496;BME280;65329;52.544;4.662;2023-02-15T04:29:34;49170.88;;;-139.74;0.00
76496;BME280;65329;52.544;4.662;2023-02-15T04:32:01;49170.88;;;-139.74;0.00
76496;BME280;65329;52.544;4.662;2023-02-15T04:34:30;49172.97;;;-139.74;0.00
76496;BME280;65329;52.544;4.662;2023-02-15T04:36:57;49170.88;;;-139.74;0.00
76496;BME280;65329;52.544;4.662;2023-02-15T04:39:29;49175.03;;;-139.74;0.00
76496;BME280;65329;52.544;4.662;2023-02-15T04:41:58;49170.88;;;-139.74;0.00
76496;BME280;65329;52.544;4.662;2023-02-15T04:44:25;49175.03;;;-139.74;0.00
76496;BME280;65329;52.544;4.662;2023-02-15T04:46:51;49170.88;;;-139.74;0.00
76496;BME280;65329;52.544;4.662;2023-02-15T04:49:27;49170.88;;;-139.74;0.00
76496;BME280;65329;52.544;4.662;2023-02-15T04:51:54;49170.88;;;-139.74;0.00
76496;BME280;65329;52.544;4.662;2023-02-15T04:54:23;49170.88;;;-139.74;0.00
76496;BME280;65329;52.544;4.662;2023-02-15T04:56:50;49172.97;;;-139.74;0.00
76496;BME280;65329;52.544;4.662;2023-02-15T04:59:18;49168.78;;;-139.74;0.00
76496;BME280;65329;52.544;4.662;2023-02-15T05:01:45;49172.97;;;-139.74;0.00
76496;BME280;65329;52.544;4.662;2023-02-15T05:04:13;49175.03;;;-139.74;0.00
76496;BME280;65329;52.544;4.662;2023-02-15T05:06:40;49172.97;;;-139.74;0.00
76496;BME280;65329;52.544;4.662;2023-02-15T05:09:07;49172.97;;;-139.74;0.00
76496;BME280;65329;52.544;4.662;2023-02-15T05:11:34;49172.97;;;-139.74;0.00
76496;BME280;65329;52.544;4.662;2023-02-15T05:14:01;49172.97;;;-139.74;0.00
76496;BME280;65329;52.544;4.662;2023-02-15T05:16:28;49170.88;;;-139.74;0.00
76496;BME280;65329;52.544;4.662;2023-02-15T05:18:55;49170.88;;;-139.74;0.00
76496;BME280;65329;52.544;4.662;2023-02-15T05:21:22;49168.78;;;-139.74;0.00
76496;BME280;65329;52.544;4.662;2023-02-15T05:23:49;49172.97;;;-139.74;0.00
76496;BME280;65329;52.544;4.662;2023-02-15T05:26:19;49172.97;;;-139.74;0.00
76496;BME280;65329;52.544;4.662;2023-02-15T05:29:05;49172.97;;;-139.74;0.00
76496;BME280;65329;52.544;4.662;2023-02-15T05:31:32;49175.03;;;-139.74;0.00
76496;BME280;65329;52.544;4.662;2023-02-15T05:34:00;49172.97;;;-139.74;0.00
76496;BME280;65329;52.544;4.662;2023-02-15T05:36:29;49172.97;;;-139.74;0.00
76496;BME280;65329;52.544;4.662;2023-02-15T05:38:56;49172.97;;;-139.74;0.00
76496;BME280;65329;52.544;4.662;2023-02-15T05:41:24;49172.97;;;-139.74;0.00
76496;BME280;65329;52.544;4.662;2023-02-15T05:43:54;49175.03;;;-139.74;0.00
76496;BME280;65329;52.544;4.662;2023-02-15T05:46:22;49172.97;;;-139.74;0.00
76496;BME280;65329;52.544;4.662;2023-02-15T05:48:49;49175.03;;;-139.74;0.00
76496;BME280;65329;52.544;4.662;2023-02-15T05:51:22;49168.78;;;-139.74;0.00
76496;BME280;65329;52.544;4.662;2023-02-15T05:53:48;49170.88;;;-139.74;0.00
76496;BME280;65329;52.544;4.662;2023-02-15T05:56:15;49170.88;;;-139.74;0.00
76496;BME280;65329;52.544;4.662;2023-02-15T05:58:42;49170.88;;;-139.74;0.00
76496;BME280;65329;52.544;4.662;2023-02-15T06:01:11;49175.03;;;-139.74;0.00
76496;BME280;65329;52.544;4.662;2023-02-15T06:03:38;49175.03;;;-139.74;0.00
76496;BME280;65329;52.544;4.662;2023-02-15T06:06:07;49172.97;;;-139.74;0.00
76496;BME280;65329;52.544;4.662;2023-02-15T06:08:35;49168.78;;;-139.74;0.00
76496;BME280;65329;52.544;4.662;2023-02-15T06:11:02;49172.97;;;-139.74;0.00
76496;BME280;65329;52.544;4.662;2023-02-15T06:13:30;49170.88;;;-139.74;0.00
76496;BME280;65329;52.544;4.662;2023-02-15T06:15:57;49172.97;;;-139.74;0.00
76496;BME280;65329;52.544;4.662;2023-02-15T06:18:24;49177.13;;;-139.74;0.00
76496;BME280;65329;52.544;4.662;2023-02-15T06:20:51;49172.97;;;-139.74;0.00
76496;BME280;65329;52.544;4.662;2023-02-15T06:23:18;49170.88;;;-139.74;0.00
76496;BME280;65329;52.544;4.662;2023-02-15T06:25:46;49170.88;;;-139.74;0.00
76496;BME280;65329;52.544;4.662;2023-02-15T06:28:14;49170.88;;;-139.74;0.00
76496;BME280;65329;52.544;4.662;2023-02-15T06:30:40;49175.03;;;-139.74;0.00
76496;BME280;65329;52.544;4.662;2023-02-15T06:33:08;49170.88;;;-139.74;0.00
76496;BME280;65329;52.544;4.662;2023-02-15T06:35:36;49175.03;;;-139.74;0.00
76496;BME280;65329;52.544;4.662;2023-02-15T06:38:03;49170.88;;;-139.74;0.00
76496;BME280;65329;52.544;4.662;2023-02-15T06:40:30;49170.88;;;-139.74;0.00
76496;BME280;65329;52.544;4.662;2023-02-15T06:42:57;49166.72;;;-139.74;0.00
76496;BME280;65329;52.544;4.662;2023-02-15T06:45:24;49170.88;;;-139.74;0.00
76496;BME280;65329;52.544;4.662;2023-02-15T06:47:51;49172.97;;;-139.74;0.00
76496;BME280;65329;52.544;4.662;2023-02-15T06:50:17;49170.88;;;-139.74;0.00
76496;BME280;65329;52.544;4.662;2023-02-15T06:52:44;49170.88;;;-139.74;0.00
76496;BME280;65329;52.544;4.662;2023-02-15T06:55:11;49170.88;;;-139.74;0.00
76496;BME280;65329;52.544;4.662;2023-02-15T06:57:38;49170.88;;;-139.74;0.00
76496;BME280;65329;52.544;4.662;2023-02-15T07:00:05;49170.88;;;-139.74;0.00
76496;BME280;65329;52.544;4.662;2023-02-15T07:02:34;49170.88;;;-139.74;0.00
76496;BME280;65329;52.544;4.662;2023-02-15T07:05:01;49172.97;;;-139.74;0.00
76496;BME280;65329;52.544;4.662;2023-02-15T07:07:29;49172.97;;;-139.74;0.00
76496;BME280;65329;52.544;4.662;2023-02-15T07:09:55;49170.88;;;-139.74;0.00
76496;BME280;65329;52.544;4.662;2023-02-15T07:12:22;49172.97;;;-139.74;0.00
76496;BME280;65329;52.544;4.662;2023-02-15T07:15:15;49172.97;;;-139.74;0.00
76496;BME280;65329;52.544;4.662;2023-02-15T07:17:43;49170.88;;;-139.74;0.00
76496;BME280;65329;52.544;4.662;2023-02-15T07:20:13;49170.88;;;-139.74;0.00
76496;BME280;65329;52.544;4.662;2023-02-15T07:22:40;49170.88;;;-139.74;0.00
76496;BME280;65329;52.544;4.662;2023-02-15T07:25:08;49168.78;;;-139.74;0.00
76496;BME280;65329;52.544;4.662;2023-02-15T07:27:38;49170.88;;;-139.74;0.00
76496;BME280;65329;52.544;4.662;2023-02-15T07:30:09;49168.78;;;-139.74;0.00
76496;BME280;65329;52.544;4.662;2023-02-15T07:32:36;49175.03;;;-139.74;0.00
76496;BME280;65329;52.544;4.662;2023-02-15T07:35:03;49170.88;;;-139.74;0.00
76496;BME280;65329;52.544;4.662;2023-02-15T07:37:30;49170.88;;;-139.74;0.00
76496;BME280;65329;52.544;4.662;2023-02-15T07:39:57;49175.03;;;-139.74;0.00
76496;BME280;65329;52.544;4.662;2023-02-15T07:42:24;49168.78;;;-139.74;0.00
76496;BME280;65329;52.544;4.662;2023-02-15T07:44:51;49172.97;;;-139.74;0.00
76496;BME280;65329;52.544;4.662;2023-02-15T07:47:23;49168.78;;;-139.74;0.00
76496;BME280;65329;52.544;4.662;2023-02-15T07:49:49;49168.78;;;-139.74;0.00
76496;BME280;65329;52.544;4.662;2023-02-15T07:52:17;49168.78;;;-139.74;0.00
76496;BME280;65329;52.544;4.662;2023-02-15T07:54:43;49166.72;;;-139.74;0.00
76496;BME280;65329;52.544;4.662;2023-02-15T07:57:10;49168.78;;;-139.74;0.00
76496;BME280;65329;52.544;4.662;2023-02-15T07:59:39;49170.88;;;-139.74;0.00
76496;BME280;65329;52.544;4.662;2023-02-15T08:02:12;49166.72;;;-139.74;0.00
76496;BME280;65329;52.544;4.662;2023-02-15T08:04:43;49170.88;;;-139.74;0.00
76496;BME280;65329;52.544;4.662;2023-02-15T08:07:10;49166.72;;;-139.74;0.00
76496;BME280;65329;52.544;4.662;2023-02-15T08:09:37;49166.72;;;-139.74;0.00
76496;BME280;65329;52.544;4.662;2023-02-15T08:12:05;49166.72;;;-139.74;0.00
76496;BME280;65329;52.544;4.662;2023-02-15T08:14:32;49166.72;;;-139.74;0.00
76496;BME280;65329;52.544;4.662;2023-02-15T08:17:00;49166.72;;;-139.74;0.00
76496;BME280;65329;52.544;4.662;2023-02-15T08:19:32;49166.72;;;-139.74;0.00
76496;BME280;65329;52.544;4.662;2023-02-15T08:22:01;49170.88;;;-139.74;0.00
76496;BME280;65329;52.544;4.662;2023-02-15T08:24:34;49168.78;;;-139.74;0.00
76496;BME280;65329;52.544;4.662;2023-02-15T08:27:04;49170.88;;;-139.74;0.00
76496;BME280;65329;52.544;4.662;2023-02-15T08:29:32;49168.78;;;-139.74;0.00
76496;BME280;65329;52.544;4.662;2023-02-15T08:32:04;49170.88;;;-139.74;0.00
76496;BME280;65329;52.544;4.662;2023-02-15T08:34:34;49166.72;;;-139.74;0.00
76496;BME280;65329;52.544;4.662;2023-02-15T08:37:02;49168.78;;;-139.74;0.00
76496;BME280;65329;52.544;4.662;2023-02-15T08:39:32;49166.72;;;-139.74;0.00
76496;BME280;65329;52.544;4.662;2023-02-15T08:41:59;49164.63;;;-139.74;0.00
76496;BME280;65329;52.544;4.662;2023-02-15T08:44:27;49170.88;;;-139.74;0.00
76496;BME280;65329;52.544;4.662;2023-02-15T08:46:54;49170.88;;;-139.74;0.00
76496;BME280;65329;52.544;4.662;2023-02-15T08:49:21;49168.78;;;-139.74;0.00
76496;BME280;65329;52.544;4.662;2023-02-15T08:51:49;49168.78;;;-139.74;0.00
76496;BME280;65329;52.544;4.662;2023-02-15T08:54:19;49166.72;;;-139.74;0.00
76496;BME280;65329;52.544;4.662;2023-02-15T08:56:46;49166.72;;;-139.74;0.00
76496;BME280;65329;52.544;4.662;2023-02-15T08:59:16;49166.72;;;-139.74;0.00
76496;BME280;65329;52.544;4.662;2023-02-15T09:01:44;49168.78;;;-139.74;0.00
76496;BME280;65329;52.544;4.662;2023-02-15T09:04:13;49166.72;;;-139.74;0.00
76496;BME280;65329;52.544;4.662;2023-02-15T09:06:43;49168.78;;;-139.74;0.00
76496;BME280;65329;52.544;4.662;2023-02-15T09:09:13;49168.78;;;-139.74;0.00
76496;BME280;65329;52.544;4.662;2023-02-15T09:11:42;49170.88;;;-139.74;0.00
76496;BME280;65329;52.544;4.662;2023-02-15T09:14:19;49164.63;;;-139.74;0.00
76496;BME280;65329;52.544;4.662;2023-02-15T09:16:47;49168.78;;;-139.74;0.00
76496;BME280;65329;52.544;4.662;2023-02-15T09:19:17;49164.63;;;-139.74;0.00
76496;BME280;65329;52.544;4.662;2023-02-15T09:21:44;49162.53;;;-139.74;0.00
76496;BME280;65329;52.544;4.662;2023-02-15T09:24:14;49166.72;;;-139.74;0.00
76496;BME280;65329;52.544;4.662;2023-02-15T09:26:44;49166.72;;;-139.74;0.00
76496;BME280;65329;52.544;4.662;2023-02-15T09:29:13;49162.53;;;-139.74;0.00
76496;BME280;65329;52.544;4.662;2023-02-15T09:31:51;49145.88;;;-139.74;0.00
76496;BME280;65329;52.544;4.662;2023-02-15T09:34:21;49162.53;;;-139.74;0.00
76496;BME280;65329;52.544;4.662;2023-02-15T09:36:49;49164.63;;;-139.74;0.00
76496;BME280;65329;52.544;4.662;2023-02-15T09:39:24;49166.72;;;-139.74;0.00
76496;BME280;65329;52.544;4.662;2023-02-15T09:55:20;49145.88;;;-139.74;0.00
76496;BME280;65329;52.544;4.662;2023-02-15T09:58:08;49145.88;;;-139.74;0.00
76496;BME280;65329;52.544;4.662;2023-02-15T10:00:48;49164.63;;;-139.74;0.00
76496;BME280;65329;52.544;4.662;2023-02-15T10:05:57;49164.63;;;-139.74;0.00
76496;BME280;65329;52.544;4.662;2023-02-15T10:17:02;49162.53;;;-139.74;0.00
76496;BME280;65329;52.544;4.662;2023-02-15T10:22:50;49145.88;;;-139.74;0.00
76496;BME280;65329;52.544;4.662;2023-02-15T10:25:29;49162.53;;;-139.74;0.00
76496;BME280;65329;52.544;4.662;2023-02-15T10:28:06;49162.53;;;-139.74;0.00
76496;BME280;65329;52.544;4.662;2023-02-15T10:30:43;49145.88;;;-139.74;0.00
76496;BME280;65329;52.544;4.662;2023-02-15T10:39:10;49145.88;;;-139.74;0.00
76496;BME280;65329;52.544;4.662;2023-02-15T10:47:47;49145.88;;;-139.74;0.00
76496;BME280;65329;52.544;4.662;2023-02-15T10:53:21;49145.88;;;-139.74;0.00
76496;BME280;65329;52.544;4.662;2023-02-15T11:01:50;49166.72;;;-139.74;0.00
76496;BME280;65329;52.544;4.662;2023-02-15T11:04:48;49164.63;;;-139.74;0.00
76496;BME280;65329;52.544;4.662;2023-02-15T11:07:21;49162.53;;;-139.74;0.00
76496;BME280;65329;52.544;4.662;2023-02-15T11:10:05;49162.53;;;-139.74;0.00
76496;BME280;65329;52.544;4.662;2023-02-15T11:12:34;49162.53;;;-139.74;0.00
76496;BME280;65329;52.544;4.662;2023-02-15T11:17:50;49145.88;;;-139.74;0.00
76496;BME280;65329;52.544;4.662;2023-02-15T11:20:28;49162.53;;;-139.74;0.00
76496;BME280;65329;52.544;4.662;2023-02-15T11:22:56;49162.53;;;-139.74;0.00
76496;BME280;65329;52.544;4.662;2023-02-15T11:25:28;49145.88;;;-139.74;0.00
76496;BME280;65329;52.544;4.662;2023-02-15T11:27:56;49145.88;;;-139.74;0.00
76496;BME280;65329;52.544;4.662;2023-02-15T11:30:29;49145.88;;;-139.74;0.00
76496;BME280;65329;52.544;4.662;2023-02-15T11:33:02;49162.53;;;-139.74;0.00
76496;BME280;65329;52.544;4.662;2023-02-15T11:35:37;49145.88;;;-139.74;0.00
76496;BME280;65329;52.544;4.662;2023-02-15T11:38:19;49145.88;;;-139.74;0.00
76496;BME280;65329;52.544;4.662;2023-02-15T11:40:49;49162.53;;;-139.74;0.00
76496;BME280;65329;52.544;4.662;2023-02-15T11:43:26;49145.88;;;-139.74;0.00
76496;BME280;65329;52.544;4.662;2023-02-15T11:45:56;49162.53;;;-139.74;0.00
76496;BME280;65329;52.544;4.662;2023-02-15T11:48:23;49168.78;;;-139.74;0.00
76496;BME280;65329;52.544;4.662;2023-02-15T11:50:50;49145.88;;;-139.74;0.00
76496;BME280;65329;52.544;4.662;2023-02-15T11:53:20;49145.88;;;-139.74;0.00
76496;BME280;65329;52.544;4.662;2023-02-15T11:55:48;49145.88;;;-139.74;0.00
76496;BME280;65329;52.544;4.662;2023-02-15T12:03:49;49145.88;;;-139.74;0.00
76496;BME280;65329;52.544;4.662;2023-02-15T12:06:30;49162.53;;;-139.74;0.00
76496;BME280;65329;52.544;4.662;2023-02-15T12:11:48;49162.53;;;-139.74;0.00
76496;BME280;65329;52.544;4.662;2023-02-15T12:14:15;49162.53;;;-139.74;0.00
76496;BME280;65329;52.544;4.662;2023-02-15T12:16:50;49145.88;;;-139.74;0.00
76496;BME280;65329;52.544;4.662;2023-02-15T12:21:56;49145.88;;;-139.74;0.00
76496;BME280;65329;52.544;4.662;2023-02-15T12:24:26;49164.63;;;-139.74;0.00
76496;BME280;65329;52.544;4.662;2023-02-15T12:27:02;49145.88;;;-139.74;0.00
76496;BME280;65329;52.544;4.662;2023-02-15T12:29:45;49145.88;;;-139.74;0.00
76496;BME280;65329;52.544;4.662;2023-02-15T12:32:47;49166.72;;;-139.74;0.00
76496;BME280;65329;52.544;4.662;2023-02-15T12:35:45;49164.63;;;-139.74;0.00
76496;BME280;65329;52.544;4.662;2023-02-15T12:40:57;49145.88;;;-139.74;0.00
76496;BME280;65329;52.544;4.662;2023-02-15T12:43:36;49145.88;;;-139.74;0.00
76496;BME280;65329;52.544;4.662;2023-02-15T12:46:25;49145.88;;;-139.74;0.00
76496;BME280;65329;52.544;4.662;2023-02-15T12:49:18;49145.88;;;-139.74;0.00
76496;BME280;65329;52.544;4.662;2023-02-15T12:54:40;49164.63;;;-139.74;0.00
76496;BME280;65329;52.544;4.662;2023-02-15T13:02:25;49162.53;;;-139.74;0.00
76496;BME280;65329;52.544;4.662;2023-02-15T13:04:53;49145.88;;;-139.74;0.00
76496;BME280;65329;52.544;4.662;2023-02-15T13:07:22;49162.53;;;-139.74;0.00
76496;BME280;65329;52.544;4.662;2023-02-15T13:09:50;49145.88;;;-139.74;0.00
76496;BME280;65329;52.544;4.662;2023-02-15T13:12:23;49145.88;;;-139.74;0.00
76496;BME280;65329;52.544;4.662;2023-02-15T13:14:54;49164.63;;;-139.74;0.00
76496;BME280;65329;52.544;4.662;2023-02-15T13:17:32;49164.63;;;-139.74;0.00
76496;BME280;65329;52.544;4.662;2023-02-15T13:20:04;49145.88;;;-139.74;0.00
76496;BME280;65329;52.544;4.662;2023-02-15T13:22:39;49162.53;;;-139.74;0.00
76496;BME280;65329;52.544;4.662;2023-02-15T13:25:21;49145.88;;;-139.74;0.00
76496;BME280;65329;52.544;4.662;2023-02-15T13:27:52;49145.88;;;-139.74;0.00
76496;BME280;65329;52.544;4.662;2023-02-15T13:30:38;49145.88;;;-139.74;0.00
76496;BME280;65329;52.544;4.662;2023-02-15T13:33:31;49164.63;;;-139.74;0.00
76496;BME280;65329;52.544;4.662;2023-02-15T13:36:17;49166.72;;;-139.74;0.00
76496;BME280;65329;52.544;4.662;2023-02-15T13:39:12;49162.53;;;-139.74;0.00
76496;BME280;65329;52.544;4.662;2023-02-15T13:44:21;49164.63;;;-139.74;0.00
76496;BME280;65329;52.544;4.662;2023-02-15T13:48:06;49166.72;;;-139.74;0.00
76496;BME280;65329;52.544;4.662;2023-02-15T13:50:20;49164.63;;;-139.74;0.00
76496;BME280;65329;52.544;4.662;2023-02-15T13:52:58;49145.88;;;-139.74;0.00
76496;BME280;65329;52.544;4.662;2023-02-15T13:55:38;49162.53;;;-139.74;0.00
76496;BME280;65329;52.544;4.662;2023-02-15T14:07:20;49145.88;;;-139.74;0.00
76496;BME280;65329;52.544;4.662;2023-02-15T14:15:26;49164.63;;;-139.74;0.00
76496;BME280;65329;52.544;4.662;2023-02-15T14:24:26;49164.63;;;-139.74;0.00
76496;BME280;65329;52.544;4.662;2023-02-15T14:26:52;49162.53;;;-139.74;0.00
76496;BME280;65329;52.544;4.662;2023-02-15T14:32:53;49162.53;;;-139.74;0.00
76496;BME280;65329;52.544;4.662;2023-02-15T14:35:27;49162.53;;;-139.74;0.00
76496;BME280;65329;52.544;4.662;2023-02-15T14:40:46;49164.63;;;-139.74;0.00
76496;BME280;65329;52.544;4.662;2023-02-15T14:48:55;49162.53;;;-139.74;0.00
76496;BME280;65329;52.544;4.662;2023-02-15T14:56:43;49145.88;;;-139.74;0.00
76496;BME280;65329;52.544;4.662;2023-02-15T14:59:20;49145.88;;;-139.74;0.00
76496;BME280;65329;52.544;4.662;2023-02-15T15:02:15;49162.53;;;-139.74;0.00
76496;BME280;65329;52.544;4.662;2023-02-15T15:05:12;49164.63;;;-139.74;0.00
76496;BME280;65329;52.544;4.662;2023-02-15T15:07:48;49164.63;;;-139.74;0.00
76496;BME280;65329;52.544;4.662;2023-02-15T15:12:48;49162.53;;;-139.74;0.00
76496;BME280;65329;52.544;4.662;2023-02-15T15:18:06;49162.53;;;-139.74;0.00
76496;BME280;65329;52.544;4.662;2023-02-15T15:20:50;49162.53;;;-139.74;0.00
76496;BME280;65329;52.544;4.662;2023-02-15T15:28:52;49162.53;;;-139.74;0.00
76496;BME280;65329;52.544;4.662;2023-02-15T15:31:30;49162.53;;;-139.74;0.00
76496;BME280;65329;52.544;4.662;2023-02-15T15:34:33;49145.88;;;-139.74;0.00
76496;BME280;65329;52.544;4.662;2023-02-15T15:37:25;49162.53;;;-139.74;0.00
76496;BME280;65329;52.544;4.662;2023-02-15T15:49:17;49145.88;;;-139.74;0.00
76496;BME280;65329;52.544;4.662;2023-02-15T15:51:46;49145.88;;;-139.74;0.00
76496;BME280;65329;52.544;4.662;2023-02-15T15:54:19;49164.63;;;-139.74;0.00
76496;BME280;65329;52.544;4.662;2023-02-15T15:56:51;49164.63;;;-139.74;0.00
76496;BME280;65329;52.544;4.662;2023-02-15T15:59:28;49162.53;;;-139.74;0.00
76496;BME280;65329;52.544;4.662;2023-02-15T16:02:03;49166.72;;;-139.74;0.00